sensor_id;sensor_type;location;lat;lon;timestamp;temperature;humidity
14079;DHT22;7115;50.150;8.568;2022-10-17T00:00:35;15.70;99.90
14079;DHT22;7115;50.150;8.568;2022-10-17T00:03:02;15.70;99.90
14079;DHT22;7115;50.150;8.568;2022-10-17T00:05:29;15.70;99.90
14079;DHT22;7115;50.150;8.568;2022-10-17T00:07:56;15.70;99.90
14079;DHT22;7115;50.150;8.568;2022-10-17T00:10:23;15.70;99.90
14079;DHT22;7115;50.150;8.568;2022-10-17T00:12:50;15.60;99.90
14079;DHT22;7115;50.150;8.568;2022-10-17T00:15:19;15.60;99.90
14079;DHT22;7115;50.150;8.568;2022-10-17T00:17:46;15.60;99.90
14079;DHT22;7115;50.150;8.568;2022-10-17T00:20:12;15.60;99.90
14079;DHT22;7115;50.150;8.568;2022-10-17T00:22:39;15.60;99.90
14079;DHT22;7115;50.150;8.568;2022-10-17T00:25:06;15.60;99.90
14079;DHT22;7115;50.150;8.568;2022-10-17T00:27:35;15.70;99.90
14079;DHT22;7115;50.150;8.568;2022-10-17T00:30:02;15.70;99.90
14079;DHT22;7115;50.150;8.568;2022-10-17T00:32:29;15.70;99.90
14079;DHT22;7115;50.150;8.568;2022-10-17T00:34:57;15.70;99.90
14079;DHT22;7115;50.150;8.568;2022-10-17T00:37:24;15.70;99.90
14079;DHT22;7115;50.150;8.568;2022-10-17T00:39:52;15.70;99.90
14079;DHT22;7115;50.150;8.568;2022-10-17T00:42:21;15.70;99.90
14079;DHT22;7115;50.150;8.568;2022-10-17T00:47:28;15.70;99.90
14079;DHT22;7115;50.150;8.568;2022-10-17T00:49:56;15.70;99.90
14079;DHT22;7115;50.150;8.568;2022-10-17T00:52:25;15.60;99.90
14079;DHT22;7115;50.150;8.568;2022-10-17T00:55:13;15.70;99.90
14079;DHT22;7115;50.150;8.568;2022-10-17T00:57:40;15.70;99.90
14079;DHT22;7115;50.150;8.568;2022-10-17T01:00:11;15.70;99.90
14079;DHT22;7115;50.150;8.568;2022-10-17T01:02:38;15.70;99.90
14079;DHT22;7115;50.150;8.568;2022-10-17T01:05:05;15.60;99.90
14079;DHT22;7115;50.150;8.568;2022-10-17T01:07:32;15.60;99.90
14079;DHT22;7115;50.150;8.568;2022-10-17T01:10:04;15.60;99.90
14079;DHT22;7115;50.150;8.568;2022-10-17T01:15:14;15.60;99.90
14079;DHT22;7115;50.150;8.568;2022-10-17T01:20:59;15.60;99.90
14079;DHT22;7115;50.150;8.568;2022-10-17T01:31:46;15.50;99.90
14079;DHT22;7115;50.150;8.568;2022-10-17T01:34:25;15.50;99.90
14079;DHT22;7115;50.150;8.568;2022-10-17T01:39:43;15.40;99.90
14079;DHT22;7115;50.150;8.568;2022-10-17T01:47:26;15.40;99.90
14079;DHT22;7115;50.150;8.568;2022-10-17T01:50:00;15.40;99.90
14079;DHT22;7115;50.150;8.568;2022-10-17T01:52:36;15.30;99.90
14079;DHT22;7115;50.150;8.568;2022-10-17T01:55:11;15.30;99.90
14079;DHT22;7115;50.150;8.568;2022-10-17T01:57:52;15.30;99.90
14079;DHT22;7115;50.150;8.568;2022-10-17T02:00:24;15.30;99.90
14079;DHT22;7115;50.150;8.568;2022-10-17T02:02:55;15.30;99.90
14079;DHT22;7115;50.150;8.568;2022-10-17T02:05:28;15.30;99.90
14079;DHT22;7115;50.150;8.568;2022-10-17T02:07:56;15.30;99.90
14079;DHT22;7115;50.150;8.568;2022-10-17T02:10:57;15.30;99.90
14079;DHT22;7115;50.150;8.568;2022-10-17T02:21:58;15.20;99.90
14079;DHT22;7115;50.150;8.568;2022-10-17T02:27:11;15.10;99.90
14079;DHT22;7115;50.150;8.568;2022-10-17T02:29:59;15.10;99.90
14079;DHT22;7115;50.150;8.568;2022-10-17T02:32:37;15.10;99.90
14079;DHT22;7115;50.150;8.568;2022-10-17T02:35:08;15.10;99.90
14079;DHT22;7115;50.150;8.568;2022-10-17T02:37:36;15.10;99.90
14079;DHT22;7115;50.150;8.568;2022-10-17T02:40:04;15.10;99.90
14079;DHT22;7115;50.150;8.568;2022-10-17T02:42:32;15.10;99.90
14079;DHT22;7115;50.150;8.568;2022-10-17T02:45:01;15.10;99.90
14079;DHT22;7115;50.150;8.568;2022-10-17T02:47:34;15.20;99.90
14079;DHT22;7115;50.150;8.568;2022-10-17T02:50:04;15.20;99.90
14079;DHT22;7115;50.150;8.568;2022-10-17T02:55:18;15.20;99.90
14079;DHT22;7115;50.150;8.568;2022-10-17T02:57:53;15.30;99.90
14079;DHT22;7115;50.150;8.568;2022-10-17T03:00:21;15.30;99.90
14079;DHT22;7115;50.150;8.568;2022-10-17T03:02:51;15.30;99.90
14079;DHT22;7115;50.150;8.568;2022-10-17T03:05:28;15.30;99.90
14079;DHT22;7115;50.150;8.568;2022-10-17T03:07:55;15.30;99.90
14079;DHT22;7115;50.150;8.568;2022-10-17T03:10:22;15.20;99.90
14079;DHT22;7115;50.150;8.568;2022-10-17T03:12:49;15.20;99.90
14079;DHT22;7115;50.150;8.568;2022-10-17T03:15:15;15.20;99.90
14079;DHT22;7115;50.150;8.568;2022-10-17T03:17:42;15.20;99.90
14079;DHT22;7115;50.150;8.568;2022-10-17T03:20:09;15.20;99.90
14079;DHT22;7115;50.150;8.568;2022-10-17T03:22:36;15.20;99.90
14079;DHT22;7115;50.150;8.568;2022-10-17T03:25:03;15.20;99.90
14079;DHT22;7115;50.150;8.568;2022-10-17T03:27:29;15.20;99.90
14079;DHT22;7115;50.150;8.568;2022-10-17T03:29:57;15.20;99.90
14079;DHT22;7115;50.150;8.568;2022-10-17T03:32:23;15.20;99.90
14079;DHT22;7115;50.150;8.568;2022-10-17T03:34:50;15.30;99.90
14079;DHT22;7115;50.150;8.568;2022-10-17T03:37:17;15.30;99.90
14079;DHT22;7115;50.150;8.568;2022-10-17T03:39:43;15.30;99.90
14079;DHT22;7115;50.150;8.568;2022-10-17T03:42:10;15.30;99.90
14079;DHT22;7115;50.150;8.568;2022-10-17T03:44:37;15.30;99.90
14079;DHT22;7115;50.150;8.568;2022-10-17T03:47:03;15.30;99.90
14079;DHT22;7115;50.150;8.568;2022-10-17T03:49:30;15.30;99.90
14079;DHT22;7115;50.150;8.568;2022-10-17T03:51:57;15.30;99.90
14079;DHT22;7115;50.150;8.568;2022-10-17T03:54:23;15.20;99.90
14079;DHT22;7115;50.150;8.568;2022-10-17T03:56:50;15.20;99.90
14079;DHT22;7115;50.150;8.568;2022-10-17T03:59:17;15.20;99.90
14079;DHT22;7115;50.150;8.568;2022-10-17T04:01:44;15.20;99.90
14079;DHT22;7115;50.150;8.568;2022-10-17T04:04:10;15.20;99.90
14079;DHT22;7115;50.150;8.568;2022-10-17T04:06:37;15.20;99.90
14079;DHT22;7115;50.150;8.568;2022-10-17T04:09:05;15.20;99.90
14079;DHT22;7115;50.150;8.568;2022-10-17T04:11:32;15.20;99.90
14079;DHT22;7115;50.150;8.568;2022-10-17T04:13:59;15.20;99.90
14079;DHT22;7115;50.150;8.568;2022-10-17T04:16:26;15.20;99.90
14079;DHT22;7115;50.150;8.568;2022-10-17T04:18:55;15.20;99.90
14079;DHT22;7115;50.150;8.568;2022-10-17T04:21:23;15.20;99.90
14079;DHT22;7115;50.150;8.568;2022-10-17T04:23:57;15.10;99.90
14079;DHT22;7115;50.150;8.568;2022-10-17T04:26:25;15.10;99.90
14079;DHT22;7115;50.150;8.568;2022-10-17T04:28:52;15.10;99.90
14079;DHT22;7115;50.150;8.568;2022-10-17T04:31:18;15.10;99.90
14079;DHT22;7115;50.150;8.568;2022-10-17T04:33:46;15.10;99.90
14079;DHT22;7115;50.150;8.568;2022-10-17T04:36:16;15.10;99.90
14079;DHT22;7115;50.150;8.568;2022-10-17T04:38:44;15.10;99.90
14079;DHT22;7115;50.150;8.568;2022-10-17T04:41:14;15.10;99.90
14079;DHT22;7115;50.150;8.568;2022-10-17T04:43:41;15.10;99.90
14079;DHT22;7115;50.150;8.568;2022-10-17T04:46:14;15.10;99.90
14079;DHT22;7115;50.150;8.568;2022-10-17T04:48:41;15.10;99.90
14079;DHT22;7115;50.150;8.568;2022-10-17T04:51:14;15.00;99.90
14079;DHT22;7115;50.150;8.568;2022-10-17T04:53:42;15.00;99.90
14079;DHT22;7115;50.150;8.568;2022-10-17T04:56:16;15.00;99.90
14079;DHT22;7115;50.150;8.568;2022-10-17T04:58:44;15.00;99.90
14079;DHT22;7115;50.150;8.568;2022-10-17T05:01:13;15.00;99.90
14079;DHT22;7115;50.150;8.568;2022-10-17T05:03:41;14.90;99.90
14079;DHT22;7115;50.150;8.568;2022-10-17T05:06:11;14.90;99.90
14079;DHT22;7115;50.150;8.568;2022-10-17T05:08:38;14.90;99.90
14079;DHT22;7115;50.150;8.568;2022-10-17T05:11:18;14.90;99.90
14079;DHT22;7115;50.150;8.568;2022-10-17T05:13:49;14.90;99.90
14079;DHT22;7115;50.150;8.568;2022-10-17T05:16:16;14.90;99.90
14079;DHT22;7115;50.150;8.568;2022-10-17T05:18:43;14.80;99.90
14079;DHT22;7115;50.150;8.568;2022-10-17T05:21:16;14.80;99.90
14079;DHT22;7115;50.150;8.568;2022-10-17T05:23:43;14.80;99.90
14079;DHT22;7115;50.150;8.568;2022-10-17T05:26:10;14.80;99.90
14079;DHT22;7115;50.150;8.568;2022-10-17T05:28:36;14.80;99.90
14079;DHT22;7115;50.150;8.568;2022-10-17T05:31:05;14.80;99.90
14079;DHT22;7115;50.150;8.568;2022-10-17T05:33:34;14.80;99.90
14079;DHT22;7115;50.150;8.568;2022-10-17T05:36:01;14.80;99.90
14079;DHT22;7115;50.150;8.568;2022-10-17T05:38:28;14.80;99.90
14079;DHT22;7115;50.150;8.568;2022-10-17T05:40:59;14.80;99.90
14079;DHT22;7115;50.150;8.568;2022-10-17T05:43:26;14.80;99.90
14079;DHT22;7115;50.150;8.568;2022-10-17T05:45:53;14.90;99.90
14079;DHT22;7115;50.150;8.568;2022-10-17T05:48:21;14.90;99.90
14079;DHT22;7115;50.150;8.568;2022-10-17T05:50:48;14.90;99.90
14079;DHT22;7115;50.150;8.568;2022-10-17T05:53:15;14.90;99.90
14079;DHT22;7115;50.150;8.568;2022-10-17T05:55:42;14.80;99.90
14079;DHT22;7115;50.150;8.568;2022-10-17T05:58:08;14.80;99.90
14079;DHT22;7115;50.150;8.568;2022-10-17T06:00:47;14.80;99.90
14079;DHT22;7115;50.150;8.568;2022-10-17T06:03:14;14.90;99.90
14079;DHT22;7115;50.150;8.568;2022-10-17T06:05:41;14.80;99.90
14079;DHT22;7115;50.150;8.568;2022-10-17T06:08:07;14.90;99.90
14079;DHT22;7115;50.150;8.568;2022-10-17T06:10:34;14.90;99.90
14079;DHT22;7115;50.150;8.568;2022-10-17T06:13:01;15.00;99.90
14079;DHT22;7115;50.150;8.568;2022-10-17T06:15:27;15.00;99.90
14079;DHT22;7115;50.150;8.568;2022-10-17T06:17:54;15.00;99.90
14079;DHT22;7115;50.150;8.568;2022-10-17T06:20:21;15.00;99.90
14079;DHT22;7115;50.150;8.568;2022-10-17T06:22:47;15.10;99.90
14079;DHT22;7115;50.150;8.568;2022-10-17T06:25:14;15.20;99.90
14079;DHT22;7115;50.150;8.568;2022-10-17T06:27:41;15.20;99.90
14079;DHT22;7115;50.150;8.568;2022-10-17T06:30:08;15.40;99.90
14079;DHT22;7115;50.150;8.568;2022-10-17T06:32:35;15.50;99.90
14079;DHT22;7115;50.150;8.568;2022-10-17T06:35:01;15.60;99.90
14079;DHT22;7115;50.150;8.568;2022-10-17T06:37:32;15.80;99.90
14079;DHT22;7115;50.150;8.568;2022-10-17T06:40:03;16.00;99.90
14079;DHT22;7115;50.150;8.568;2022-10-17T06:42:29;16.20;99.90
14079;DHT22;7115;50.150;8.568;2022-10-17T06:44:56;16.50;99.90
14079;DHT22;7115;50.150;8.568;2022-10-17T06:47:23;17.00;99.90
14079;DHT22;7115;50.150;8.568;2022-10-17T06:49:49;17.50;99.90
14079;DHT22;7115;50.150;8.568;2022-10-17T06:52:16;17.90;99.90
14079;DHT22;7115;50.150;8.568;2022-10-17T06:54:43;18.40;99.90
14079;DHT22;7115;50.150;8.568;2022-10-17T06:57:10;18.90;99.90
14079;DHT22;7115;50.150;8.568;2022-10-17T06:59:37;19.30;99.90
14079;DHT22;7115;50.150;8.568;2022-10-17T07:02:04;19.80;99.90
14079;DHT22;7115;50.150;8.568;2022-10-17T07:04:31;20.30;99.90
14079;DHT22;7115;50.150;8.568;2022-10-17T07:06:58;20.80;99.90
14079;DHT22;7115;50.150;8.568;2022-10-17T07:09:31;21.20;99.90
14079;DHT22;7115;50.150;8.568;2022-10-17T07:11:58;21.70;99.90
14079;DHT22;7115;50.150;8.568;2022-10-17T07:14:25;22.20;99.90
14079;DHT22;7115;50.150;8.568;2022-10-17T07:16:58;22.70;99.90
14079;DHT22;7115;50.150;8.568;2022-10-17T07:19:25;23.20;99.90
14079;DHT22;7115;50.150;8.568;2022-10-17T07:21:53;23.50;99.90
14079;DHT22;7115;50.150;8.568;2022-10-17T07:24:20;24.00;99.90
14079;DHT22;7115;50.150;8.568;2022-10-17T07:26:46;24.40;99.90
14079;DHT22;7115;50.150;8.568;2022-10-17T07:29:13;24.80;99.90
14079;DHT22;7115;50.150;8.568;2022-10-17T07:31:40;25.20;99.90
14079;DHT22;7115;50.150;8.568;2022-10-17T07:34:07;25.60;99.90
14079;DHT22;7115;50.150;8.568;2022-10-17T07:36:33;25.90;99.90
14079;DHT22;7115;50.150;8.568;2022-10-17T07:39:00;26.20;99.90
14079;DHT22;7115;50.150;8.568;2022-10-17T07:41:27;26.50;99.90
14079;DHT22;7115;50.150;8.568;2022-10-17T07:43:54;26.80;99.90
14079;DHT22;7115;50.150;8.568;2022-10-17T07:46:21;27.10;99.90
14079;DHT22;7115;50.150;8.568;2022-10-17T07:48:47;27.40;99.90
14079;DHT22;7115;50.150;8.568;2022-10-17T07:51:14;27.50;99.90
14079;DHT22;7115;50.150;8.568;2022-10-17T07:53:41;27.50;99.70
14079;DHT22;7115;50.150;8.568;2022-10-17T07:56:14;27.70;99.40
14079;DHT22;7115;50.150;8.568;2022-10-17T07:58:41;28.00;99.30
14079;DHT22;7115;50.150;8.568;2022-10-17T08:01:09;28.20;98.40
14079;DHT22;7115;50.150;8.568;2022-10-17T08:03:43;28.30;97.90
14079;DHT22;7115;50.150;8.568;2022-10-17T08:06:10;28.40;97.60
14079;DHT22;7115;50.150;8.568;2022-10-17T08:08:36;28.50;97.20
14079;DHT22;7115;50.150;8.568;2022-10-17T08:11:05;28.70;96.60
14079;DHT22;7115;50.150;8.568;2022-10-17T08:13:33;28.60;96.00
14079;DHT22;7115;50.150;8.568;2022-10-17T08:16:01;28.60;96.00
14079;DHT22;7115;50.150;8.568;2022-10-17T08:18:28;28.50;95.60
14079;DHT22;7115;50.150;8.568;2022-10-17T08:20:59;28.00;95.40
14079;DHT22;7115;50.150;8.568;2022-10-17T08:23:26;27.30;95.50
14079;DHT22;7115;50.150;8.568;2022-10-17T08:25:53;26.70;96.00
14079;DHT22;7115;50.150;8.568;2022-10-17T08:28:20;26.20;96.50
14079;DHT22;7115;50.150;8.568;2022-10-17T08:30:47;25.80;96.90
14079;DHT22;7115;50.150;8.568;2022-10-17T08:33:14;25.60;97.30
14079;DHT22;7115;50.150;8.568;2022-10-17T08:35:40;25.50;97.50
14079;DHT22;7115;50.150;8.568;2022-10-17T08:38:07;25.40;97.60
14079;DHT22;7115;50.150;8.568;2022-10-17T08:40:39;25.50;97.80
14079;DHT22;7115;50.150;8.568;2022-10-17T08:43:20;25.70;97.80
14079;DHT22;7115;50.150;8.568;2022-10-17T08:45:54;25.90;97.50
14079;DHT22;7115;50.150;8.568;2022-10-17T08:48:27;25.80;97.40
14079;DHT22;7115;50.150;8.568;2022-10-17T08:51:45;25.70;97.50
14079;DHT22;7115;50.150;8.568;2022-10-17T08:54:11;25.60;97.50
14079;DHT22;7115;50.150;8.568;2022-10-17T08:56:48;25.40;97.80
14079;DHT22;7115;50.150;8.568;2022-10-17T08:59:27;25.30;97.90
14079;DHT22;7115;50.150;8.568;2022-10-17T09:05:24;25.10;98.30
14079;DHT22;7115;50.150;8.568;2022-10-17T09:10:59;24.90;98.40
14079;DHT22;7115;50.150;8.568;2022-10-17T09:16:49;24.20;98.80
14079;DHT22;7115;50.150;8.568;2022-10-17T09:19:23;23.80;99.20
14079;DHT22;7115;50.150;8.568;2022-10-17T09:21:56;23.70;99.60
14079;DHT22;7115;50.150;8.568;2022-10-17T09:27:26;24.40;99.50
14079;DHT22;7115;50.150;8.568;2022-10-17T09:30:20;24.90;99.20
14079;DHT22;7115;50.150;8.568;2022-10-17T09:36:03;26.20;97.90
14079;DHT22;7115;50.150;8.568;2022-10-17T09:38:37;26.30;97.70
14079;DHT22;7115;50.150;8.568;2022-10-17T09:41:14;26.40;97.30
14079;DHT22;7115;50.150;8.568;2022-10-17T09:44:22;26.40;97.20
14079;DHT22;7115;50.150;8.568;2022-10-17T09:47:08;26.40;97.00
14079;DHT22;7115;50.150;8.568;2022-10-17T09:49:39;26.20;97.10
14079;DHT22;7115;50.150;8.568;2022-10-17T09:55:06;26.60;96.70
14079;DHT22;7115;50.150;8.568;2022-10-17T10:00:23;26.80;96.20
14079;DHT22;7115;50.150;8.568;2022-10-17T10:02:50;27.00;96.20
14079;DHT22;7115;50.150;8.568;2022-10-17T10:05:23;27.40;96.10
14079;DHT22;7115;50.150;8.568;2022-10-17T10:08:19;28.00;95.40
14079;DHT22;7115;50.150;8.568;2022-10-17T10:11:00;28.20;95.20
14079;DHT22;7115;50.150;8.568;2022-10-17T10:13:31;28.20;94.60
14079;DHT22;7115;50.150;8.568;2022-10-17T10:18:44;28.50;94.10
14079;DHT22;7115;50.150;8.568;2022-10-17T10:21:20;28.80;94.00
14079;DHT22;7115;50.150;8.568;2022-10-17T10:26:46;29.60;93.30
14079;DHT22;7115;50.150;8.568;2022-10-17T10:29:25;30.00;92.80
14079;DHT22;7115;50.150;8.568;2022-10-17T10:32:06;30.40;92.20
14079;DHT22;7115;50.150;8.568;2022-10-17T10:34:34;30.70;91.70
14079;DHT22;7115;50.150;8.568;2022-10-17T10:37:15;30.70;91.20
14079;DHT22;7115;50.150;8.568;2022-10-17T10:39:56;30.60;91.00
14079;DHT22;7115;50.150;8.568;2022-10-17T10:44:51;30.30;90.70
14079;DHT22;7115;50.150;8.568;2022-10-17T10:47:23;30.10;90.70
14079;DHT22;7115;50.150;8.568;2022-10-17T10:50:08;30.00;90.40
14079;DHT22;7115;50.150;8.568;2022-10-17T10:52:51;29.80;90.40
14079;DHT22;7115;50.150;8.568;2022-10-17T10:55:27;29.60;90.40
14079;DHT22;7115;50.150;8.568;2022-10-17T10:58:03;29.50;90.40
14079;DHT22;7115;50.150;8.568;2022-10-17T11:00:33;29.20;90.40
14079;DHT22;7115;50.150;8.568;2022-10-17T11:03:16;28.80;90.70
14079;DHT22;7115;50.150;8.568;2022-10-17T11:05:52;28.40;91.30
14079;DHT22;7115;50.150;8.568;2022-10-17T11:11:11;27.80;91.70
14079;DHT22;7115;50.150;8.568;2022-10-17T11:13:57;27.60;92.10
14079;DHT22;7115;50.150;8.568;2022-10-17T11:22:19;26.70;93.00
14079;DHT22;7115;50.150;8.568;2022-10-17T11:24:59;26.40;93.30
14079;DHT22;7115;50.150;8.568;2022-10-17T11:27:29;26.00;93.60
14079;DHT22;7115;50.150;8.568;2022-10-17T11:29:56;25.70;94.10
14079;DHT22;7115;50.150;8.568;2022-10-17T11:32:36;25.50;94.40
14079;DHT22;7115;50.150;8.568;2022-10-17T11:35:22;25.30;94.70
14079;DHT22;7115;50.150;8.568;2022-10-17T11:38:08;25.10;95.20
14079;DHT22;7115;50.150;8.568;2022-10-17T11:40:39;25.00;95.40
14079;DHT22;7115;50.150;8.568;2022-10-17T11:43:20;24.90;95.60
14079;DHT22;7115;50.150;8.568;2022-10-17T11:46:23;24.90;95.80
14079;DHT22;7115;50.150;8.568;2022-10-17T11:49:08;24.80;96.00
14079;DHT22;7115;50.150;8.568;2022-10-17T11:51:43;24.70;96.10
14079;DHT22;7115;50.150;8.568;2022-10-17T11:54:36;24.60;96.20
14079;DHT22;7115;50.150;8.568;2022-10-17T12:02:50;24.50;96.60
14079;DHT22;7115;50.150;8.568;2022-10-17T12:05:24;24.50;96.80
14079;DHT22;7115;50.150;8.568;2022-10-17T12:07:58;24.50;97.00
14079;DHT22;7115;50.150;8.568;2022-10-17T12:15:50;24.70;97.20
14079;DHT22;7115;50.150;8.568;2022-10-17T12:18:17;24.70;97.20
14079;DHT22;7115;50.150;8.568;2022-10-17T12:20:54;24.80;97.30
14079;DHT22;7115;50.150;8.568;2022-10-17T12:23:25;24.80;97.30
14079;DHT22;7115;50.150;8.568;2022-10-17T12:26:00;24.90;97.40
14079;DHT22;7115;50.150;8.568;2022-10-17T12:28:31;25.10;97.30
14079;DHT22;7115;50.150;8.568;2022-10-17T12:33:54;25.50;97.10
14079;DHT22;7115;50.150;8.568;2022-10-17T13:03:21;25.50;96.80
14079;DHT22;7115;50.150;8.568;2022-10-17T13:05:54;25.30;97.10
14079;DHT22;7115;50.150;8.568;2022-10-17T13:08:29;25.20;97.20
14079;DHT22;7115;50.150;8.568;2022-10-17T13:10:57;25.00;97.40
14079;DHT22;7115;50.150;8.568;2022-10-17T13:16:02;24.90;97.90
14079;DHT22;7115;50.150;8.568;2022-10-17T13:18:29;24.80;97.90
14079;DHT22;7115;50.150;8.568;2022-10-17T13:20:57;24.80;98.00
14079;DHT22;7115;50.150;8.568;2022-10-17T13:23:24;24.80;98.10
14079;DHT22;7115;50.150;8.568;2022-10-17T13:28:36;25.00;98.20
14079;DHT22;7115;50.150;8.568;2022-10-17T13:31:06;25.10;98.30
14079;DHT22;7115;50.150;8.568;2022-10-17T13:33:38;25.30;98.30
14079;DHT22;7115;50.150;8.568;2022-10-17T13:36:06;25.40;98.10
14079;DHT22;7115;50.150;8.568;2022-10-17T13:38:34;25.60;98.10
14079;DHT22;7115;50.150;8.568;2022-10-17T13:41:11;25.70;98.00
14079;DHT22;7115;50.150;8.568;2022-10-17T13:43:59;25.90;97.90
14079;DHT22;7115;50.150;8.568;2022-10-17T13:46:30;26.00;97.80
14079;DHT22;7115;50.150;8.568;2022-10-17T13:49:31;26.10;97.70
14079;DHT22;7115;50.150;8.568;2022-10-17T13:52:00;26.20;97.50
14079;DHT22;7115;50.150;8.568;2022-10-17T13:56:58;26.20;97.30
14079;DHT22;7115;50.150;8.568;2022-10-17T13:59:30;26.20;97.40
14079;DHT22;7115;50.150;8.568;2022-10-17T14:01:59;26.10;97.40
14079;DHT22;7115;50.150;8.568;2022-10-17T14:04:27;26.10;97.40
14079;DHT22;7115;50.150;8.568;2022-10-17T14:12:53;26.10;97.60
14079;DHT22;7115;50.150;8.568;2022-10-17T14:15:21;26.10;97.50
14079;DHT22;7115;50.150;8.568;2022-10-17T14:17:53;26.20;97.40
14079;DHT22;7115;50.150;8.568;2022-10-17T14:20:20;26.20;97.30
14079;DHT22;7115;50.150;8.568;2022-10-17T14:23:25;26.10;97.10
14079;DHT22;7115;50.150;8.568;2022-10-17T14:26:04;26.00;97.10
14079;DHT22;7115;50.150;8.568;2022-10-17T14:28:31;25.90;97.00
14079;DHT22;7115;50.150;8.568;2022-10-17T14:33:53;25.80;96.90
14079;DHT22;7115;50.150;8.568;2022-10-17T14:36:29;25.60;96.80
14079;DHT22;7115;50.150;8.568;2022-10-17T14:38:56;25.60;96.80
14079;DHT22;7115;50.150;8.568;2022-10-17T14:41:24;25.50;96.90
14079;DHT22;7115;50.150;8.568;2022-10-17T14:44:17;25.50;97.00
14079;DHT22;7115;50.150;8.568;2022-10-17T14:46:44;25.40;97.00
14079;DHT22;7115;50.150;8.568;2022-10-17T14:49:18;25.40;97.30
14079;DHT22;7115;50.150;8.568;2022-10-17T14:54:40;25.40;97.10
14079;DHT22;7115;50.150;8.568;2022-10-17T14:57:20;25.40;97.20
14079;DHT22;7115;50.150;8.568;2022-10-17T14:59:47;25.50;97.20
14079;DHT22;7115;50.150;8.568;2022-10-17T15:02:21;25.30;97.20
14079;DHT22;7115;50.150;8.568;2022-10-17T15:04:47;25.30;97.80
14079;DHT22;7115;50.150;8.568;2022-10-17T15:07:15;25.10;97.50
14079;DHT22;7115;50.150;8.568;2022-10-17T15:09:42;25.00;97.60
14079;DHT22;7115;50.150;8.568;2022-10-17T15:12:13;24.90;97.80
14079;DHT22;7115;50.150;8.568;2022-10-17T15:14:39;24.80;97.90
14079;DHT22;7115;50.150;8.568;2022-10-17T15:17:11;24.80;98.10
14079;DHT22;7115;50.150;8.568;2022-10-17T15:19:38;24.70;98.20
14079;DHT22;7115;50.150;8.568;2022-10-17T15:22:05;24.60;98.30
14079;DHT22;7115;50.150;8.568;2022-10-17T15:24:31;24.50;98.40
14079;DHT22;7115;50.150;8.568;2022-10-17T15:26:58;24.40;98.60
14079;DHT22;7115;50.150;8.568;2022-10-17T15:29:24;24.40;98.80
14079;DHT22;7115;50.150;8.568;2022-10-17T15:31:51;24.40;98.90
14079;DHT22;7115;50.150;8.568;2022-10-17T15:34:18;24.40;99.00
14079;DHT22;7115;50.150;8.568;2022-10-17T15:36:50;24.40;99.10
14079;DHT22;7115;50.150;8.568;2022-10-17T15:39:17;24.40;99.20
14079;DHT22;7115;50.150;8.568;2022-10-17T15:41:44;24.40;99.20
14079;DHT22;7115;50.150;8.568;2022-10-17T15:44:13;24.40;99.30
14079;DHT22;7115;50.150;8.568;2022-10-17T15:46:40;24.40;99.40
14079;DHT22;7115;50.150;8.568;2022-10-17T15:49:09;24.30;99.50
14079;DHT22;7115;50.150;8.568;2022-10-17T15:51:36;24.30;99.60
14079;DHT22;7115;50.150;8.568;2022-10-17T15:54:03;24.30;99.70
14079;DHT22;7115;50.150;8.568;2022-10-17T15:56:40;24.20;99.80
14079;DHT22;7115;50.150;8.568;2022-10-17T15:59:11;24.10;99.90
14079;DHT22;7115;50.150;8.568;2022-10-17T16:01:39;24.10;99.90
14079;DHT22;7115;50.150;8.568;2022-10-17T16:04:07;24.00;99.90
14079;DHT22;7115;50.150;8.568;2022-10-17T16:06:34;24.00;99.90
14079;DHT22;7115;50.150;8.568;2022-10-17T16:09:01;23.90;99.90
14079;DHT22;7115;50.150;8.568;2022-10-17T16:11:29;23.90;99.90
14079;DHT22;7115;50.150;8.568;2022-10-17T16:13:58;23.80;99.90
14079;DHT22;7115;50.150;8.568;2022-10-17T16:16:26;23.80;99.90
14079;DHT22;7115;50.150;8.568;2022-10-17T16:18:52;23.80;99.90
14079;DHT22;7115;50.150;8.568;2022-10-17T16:21:19;23.80;99.90
14079;DHT22;7115;50.150;8.568;2022-10-17T16:23:47;23.70;99.90
14079;DHT22;7115;50.150;8.568;2022-10-17T16:26:14;23.60;99.90
14079;DHT22;7115;50.150;8.568;2022-10-17T16:28:42;23.50;99.90
14079;DHT22;7115;50.150;8.568;2022-10-17T16:31:14;23.50;99.90
14079;DHT22;7115;50.150;8.568;2022-10-17T16:33:42;23.40;99.90
14079;DHT22;7115;50.150;8.568;2022-10-17T16:36:09;23.30;99.90
14079;DHT22;7115;50.150;8.568;2022-10-17T16:38:36;23.20;99.90
14079;DHT22;7115;50.150;8.568;2022-10-17T16:41:02;23.10;99.90
14079;DHT22;7115;50.150;8.568;2022-10-17T16:43:29;22.90;99.90
14079;DHT22;7115;50.150;8.568;2022-10-17T16:46:02;22.80;99.90
14079;DHT22;7115;50.150;8.568;2022-10-17T16:48:29;22.70;99.90
14079;DHT22;7115;50.150;8.568;2022-10-17T16:50:55;22.60;99.90
14079;DHT22;7115;50.150;8.568;2022-10-17T16:53:22;22.50;99.90
14079;DHT22;7115;50.150;8.568;2022-10-17T16:56:01;22.40;99.90
14079;DHT22;7115;50.150;8.568;2022-10-17T16:58:28;22.30;99.90
14079;DHT22;7115;50.150;8.568;2022-10-17T17:00:59;22.20;99.90
14079;DHT22;7115;50.150;8.568;2022-10-17T17:03:27;22.20;99.90
14079;DHT22;7115;50.150;8.568;2022-10-17T17:05:53;22.10;99.90
14079;DHT22;7115;50.150;8.568;2022-10-17T17:08:20;22.00;99.90
14079;DHT22;7115;50.150;8.568;2022-10-17T17:10:47;21.90;99.90
14079;DHT22;7115;50.150;8.568;2022-10-17T17:13:16;21.90;99.90
14079;DHT22;7115;50.150;8.568;2022-10-17T17:15:43;21.80;99.90
14079;DHT22;7115;50.150;8.568;2022-10-17T17:18:16;21.70;99.90
14079;DHT22;7115;50.150;8.568;2022-10-17T17:20:42;21.60;99.90
14079;DHT22;7115;50.150;8.568;2022-10-17T17:23:09;21.60;99.90
14079;DHT22;7115;50.150;8.568;2022-10-17T17:25:41;21.50;99.90
14079;DHT22;7115;50.150;8.568;2022-10-17T17:28:07;21.50;99.90
14079;DHT22;7115;50.150;8.568;2022-10-17T17:30:34;21.50;99.90
14079;DHT22;7115;50.150;8.568;2022-10-17T17:33:01;21.50;99.90
14079;DHT22;7115;50.150;8.568;2022-10-17T17:35:27;21.40;99.90
14079;DHT22;7115;50.150;8.568;2022-10-17T17:37:54;21.40;99.90
14079;DHT22;7115;50.150;8.568;2022-10-17T17:40:21;21.30;99.90
14079;DHT22;7115;50.150;8.568;2022-10-17T17:42:47;21.30;99.90
14079;DHT22;7115;50.150;8.568;2022-10-17T17:45:14;21.20;99.90
14079;DHT22;7115;50.150;8.568;2022-10-17T17:47:41;21.20;99.90
14079;DHT22;7115;50.150;8.568;2022-10-17T17:50:07;21.10;99.90
14079;DHT22;7115;50.150;8.568;2022-10-17T17:52:34;21.10;99.90
14079;DHT22;7115;50.150;8.568;2022-10-17T17:55:00;21.10;99.90
14079;DHT22;7115;50.150;8.568;2022-10-17T17:57:28;21.10;99.90
14079;DHT22;7115;50.150;8.568;2022-10-17T17:59:54;21.10;99.90
14079;DHT22;7115;50.150;8.568;2022-10-17T18:02:21;21.00;99.90
14079;DHT22;7115;50.150;8.568;2022-10-17T18:04:47;21.00;99.90
14079;DHT22;7115;50.150;8.568;2022-10-17T18:07:14;21.00;99.90
14079;DHT22;7115;50.150;8.568;2022-10-17T18:09:40;21.00;99.90
14079;DHT22;7115;50.150;8.568;2022-10-17T18:12:07;21.00;99.90
14079;DHT22;7115;50.150;8.568;2022-10-17T18:14:34;21.00;99.90
14079;DHT22;7115;50.150;8.568;2022-10-17T18:17:00;21.00;99.90
14079;DHT22;7115;50.150;8.568;2022-10-17T18:19:27;20.90;99.90
14079;DHT22;7115;50.150;8.568;2022-10-17T18:21:54;20.90;99.90